Time,TemperatureF,DewpointF,PressureIn,WindDirection,WindDirectionDegrees,WindSpeedMPH,WindSpeedGustMPH,Humidity,HourlyPrecipIn,Conditions,Clouds,dailyrainin,SoftwareType,DateUTC
2013-03-28 00:09:00,31.6,31.0,29.70,SE,140,2.0,5.0,96,0.00,,,0.00,weatherlink.com 1.10,2013-03-28 00:09:00,
2013-03-28 00:24:00,31.6,31.0,29.70,SE,125,3.0,6.0,96,0.00,,,0.00,weatherlink.com 1.10,2013-03-28 00:24:00,
2013-03-28 00:39:00,32.0,31.0,29.69,SE,142,5.0,12.0,94,0.00,,,0.00,weatherlink.com 1.10,2013-03-28 00:39:00,
2013-03-28 00:54:00,32.4,30.0,29.69,SSE,162,6.0,9.0,90,0.00,,,0.00,weatherlink.com 1.10,2013-03-28 00:54:00,
2013-03-28 01:09:00,32.5,29.0,29.69,SE,145,3.0,9.0,88,0.00,,,0.00,weatherlink.com 1.10,2013-03-28 01:09:00,
2013-03-28 01:24:00,32.6,29.0,29.70,SE,145,8.0,10.0,86,0.00,,,0.00,weatherlink.com 1.10,2013-03-28 01:24:00,
2013-03-28 01:40:00,32.5,28.0,29.70,SSE,156,4.0,8.0,84,0.00,,,0.00,weatherlink.com 1.10,2013-03-28 01:40:00,
2013-03-28 01:55:00,32.2,28.0,29.70,SE,134,4.0,7.0,83,0.00,,,0.00,weatherlink.com 1.10,2013-03-28 01:55:00,
2013-03-28 02:10:00,32.1,27.0,29.70,SSE,156,3.0,8.0,80,0.00,,,0.00,weatherlink.com 1.10,2013-03-28 02:10:00,
2013-03-28 02:25:00,31.9,26.0,29.70,SE,131,4.0,5.0,79,0.00,,,0.00,weatherlink.com 1.10,2013-03-28 02:25:00,
2013-03-28 02:40:00,32.2,26.0,29.70,SE,136,3.0,7.0,77,0.00,,,0.00,weatherlink.com 1.10,2013-03-28 02:40:00,
2013-03-28 02:55:00,32.4,26.0,29.70,SE,145,6.0,14.0,77,0.00,,,0.00,weatherlink.com 1.10,2013-03-28 02:55:00,
2013-03-28 03:10:00,32.1,28.0,29.69,SE,128,5.0,13.0,83,0.00,,,0.00,weatherlink.com 1.10,2013-03-28 03:10:00,
2013-03-28 03:25:00,31.9,28.0,29.69,SE,132,2.0,8.0,86,0.00,,,0.00,weatherlink.com 1.10,2013-03-28 03:25:00,
2013-03-28 03:40:00,31.8,28.0,29.69,SE,134,2.0,5.0,87,0.00,,,0.00,weatherlink.com 1.10,2013-03-28 03:40:00,
2013-03-28 03:55:00,32.0,28.0,29.69,SE,137,4.0,16.0,84,0.00,,,0.00,weatherlink.com 1.10,2013-03-28 03:55:00,
2013-03-28 04:10:00,31.4,28.0,29.68,SE,135,2.0,8.0,88,0.00,,,0.00,weatherlink.com 1.10,2013-03-28 04:10:00,
2013-03-28 04:25:00,31.7,28.0,29.68,SSE,150,5.0,8.0,87,0.00,,,0.00,weatherlink.com 1.10,2013-03-28 04:25:00,
2013-03-28 04:40:00,31.8,28.0,29.68,SE,139,4.0,8.0,87,0.00,,,0.00,weatherlink.com 1.10,2013-03-28 04:40:00,
2013-03-28 04:55:00,31.7,28.0,29.68,SE,129,2.0,5.0,87,0.00,,,0.00,weatherlink.com 1.10,2013-03-28 04:55:00,
2013-03-28 05:10:00,31.8,28.0,29.69,SSE,148,2.0,7.0,87,0.00,,,0.00,weatherlink.com 1.10,2013-03-28 05:10:00,
2013-03-28 05:25:00,31.6,28.0,29.69,SE,132,4.0,7.0,87,0.00,,,0.00,weatherlink.com 1.10,2013-03-28 05:25:00,
2013-03-28 05:40:00,30.9,28.0,29.69,SSE,150,2.0,10.0,90,0.00,,,0.00,weatherlink.com 1.10,2013-03-28 05:40:00,
2013-03-28 05:55:00,29.9,28.0,29.69,ESE,120,1.0,6.0,93,0.00,,,0.00,weatherlink.com 1.10,2013-03-28 05:55:00,
2013-03-28 06:10:00,-999.0,-99.9,29.69,North,-999,-999.0,-999.0,-999,0.00,,,0.00,weatherlink.com 1.10,2013-03-28 06:10:00,
2013-03-28 06:25:00,-999.0,-99.9,29.69,North,-999,-999.0,-999.0,-999,0.00,,,0.00,weatherlink.com 1.10,2013-03-28 06:25:00,
2013-03-28 06:40:00,-999.0,-99.9,29.69,North,-999,-999.0,-999.0,-999,0.00,,,0.00,weatherlink.com 1.10,2013-03-28 06:40:00,
2013-03-28 06:55:00,-999.0,-99.9,29.69,North,-999,-999.0,-999.0,-999,0.00,,,0.00,weatherlink.com 1.10,2013-03-28 06:55:00,
2013-03-28 07:10:00,-999.0,-99.9,29.68,North,-999,-999.0,-999.0,-999,0.00,,,0.00,weatherlink.com 1.10,2013-03-28 07:10:00,
2013-03-28 07:25:00,32.1,29.0,29.69,SE,136,3.0,9.0,89,0.00,,,0.00,weatherlink.com 1.10,2013-03-28 07:25:00,
2013-03-28 07:40:00,31.0,29.0,29.69,East,101,1.0,13.0,93,0.00,,,0.00,weatherlink.com 1.10,2013-03-28 07:40:00,
2013-03-28 07:55:00,31.0,30.0,29.69,SSE,156,6.0,9.0,94,0.00,,,0.00,weatherlink.com 1.10,2013-03-28 07:55:00,
2013-03-28 08:10:00,31.7,30.0,29.69,SE,135,4.0,7.0,93,0.00,,,0.00,weatherlink.com 1.10,2013-03-28 08:10:00,
2013-03-28 08:25:00,32.2,30.0,29.68,SE,129,8.0,15.0,91,0.00,,,0.00,weatherlink.com 1.10,2013-03-28 08:25:00,
2013-03-28 08:40:00,33.4,30.0,29.68,SE,134,2.0,10.0,87,0.00,,,0.00,weatherlink.com 1.10,2013-03-28 08:40:00,
2013-03-28 08:55:00,33.4,29.0,29.68,SE,145,6.0,11.0,85,0.00,,,0.00,weatherlink.com 1.10,2013-03-28 08:55:00,
2013-03-28 09:10:00,33.5,30.0,29.68,SSE,148,15.0,17.0,86,0.00,,,0.00,weatherlink.com 1.10,2013-03-28 09:10:00,
2013-03-28 09:25:00,32.9,30.0,29.68,SSE,148,9.0,13.0,89,0.00,,,0.00,weatherlink.com 1.10,2013-03-28 09:25:00,
2013-03-28 09:40:00,33.4,30.0,29.68,SE,128,6.0,15.0,87,0.00,,,0.00,weatherlink.com 1.10,2013-03-28 09:40:00,
2013-03-28 09:55:00,33.5,29.0,29.69,SSE,148,10.0,19.0,83,0.00,,,0.00,weatherlink.com 1.10,2013-03-28 09:55:00,
2013-03-28 10:10:00,33.5,29.0,29.68,SE,139,8.0,15.0,83,0.00,,,0.00,weatherlink.com 1.10,2013-03-28 10:10:00,
2013-03-28 10:26:00,33.7,29.0,29.69,SE,135,7.0,18.0,82,0.01,,,0.01,weatherlink.com 1.10,2013-03-28 10:26:00,
2013-03-28 10:40:00,34.0,29.0,29.68,SSE,150,3.0,16.0,82,0.01,,,0.01,weatherlink.com 1.10,2013-03-28 10:40:00,
2013-03-28 10:56:00,34.7,29.0,29.69,SSE,156,7.0,12.0,80,0.02,,,0.02,weatherlink.com 1.10,2013-03-28 10:56:00,
2013-03-28 11:11:00,33.7,29.0,29.69,SSE,154,9.0,15.0,84,0.02,,,0.02,weatherlink.com 1.10,2013-03-28 11:11:00,
2013-03-28 11:26:00,33.1,30.0,29.69,SSE,159,4.0,15.0,89,0.01,,,0.02,weatherlink.com 1.10,2013-03-28 11:26:00,
2013-03-28 11:41:00,34.4,30.0,29.68,SE,145,12.0,15.0,85,0.02,,,0.02,weatherlink.com 1.10,2013-03-28 11:41:00,
2013-03-28 12:41:00,36.8,28.0,29.67,SE,141,8.0,20.0,71,0.00,,,0.02,weatherlink.com 1.10,2013-03-28 12:41:00,
2013-03-28 13:11:00,36.9,28.0,29.66,SSE,150,13.0,19.0,71,0.00,,,0.02,weatherlink.com 1.10,2013-03-28 13:11:00,
2013-03-28 13:41:00,37.8,27.0,29.66,SSE,156,13.0,18.0,66,0.00,,,0.02,weatherlink.com 1.10,2013-03-28 13:41:00,
2013-03-28 13:56:00,37.6,27.0,29.66,SE,142,11.0,19.0,65,0.00,,,0.02,weatherlink.com 1.10,2013-03-28 13:56:00,
2013-03-28 14:11:00,38.0,26.0,29.65,South,172,15.0,21.0,63,0.00,,,0.02,weatherlink.com 1.10,2013-03-28 14:11:00,
2013-03-28 14:26:00,37.8,27.0,29.64,South,177,14.0,23.0,65,0.00,,,0.02,weatherlink.com 1.10,2013-03-28 14:26:00,
2013-03-28 14:41:00,38.0,27.0,29.64,SSE,159,9.0,26.0,64,0.00,,,0.02,weatherlink.com 1.10,2013-03-28 14:41:00,
2013-03-28 14:56:00,38.2,26.0,29.64,SSE,148,13.0,17.0,62,0.00,,,0.02,weatherlink.com 1.10,2013-03-28 14:56:00,
2013-03-28 15:11:00,38.4,26.0,29.64,SE,138,14.0,19.0,61,0.00,,,0.02,weatherlink.com 1.10,2013-03-28 15:11:00,
2013-03-28 15:26:00,38.7,26.0,29.64,SE,128,8.0,19.0,60,0.00,,,0.02,weatherlink.com 1.10,2013-03-28 15:26:00,
2013-03-28 15:41:00,38.5,26.0,29.64,SSE,153,15.0,20.0,61,0.00,,,0.02,weatherlink.com 1.10,2013-03-28 15:41:00,
2013-03-28 16:11:00,38.8,29.0,29.64,SE,133,16.0,18.0,67,0.00,,,0.02,weatherlink.com 1.10,2013-03-28 16:11:00,
2013-03-28 16:26:00,38.5,28.0,29.65,SSE,153,9.0,16.0,67,0.00,,,0.02,weatherlink.com 1.10,2013-03-28 16:26:00,
2013-03-28 16:41:00,38.2,28.0,29.65,SE,145,7.0,15.0,66,0.00,,,0.02,weatherlink.com 1.10,2013-03-28 16:41:00,
2013-03-28 16:56:00,38.2,26.0,29.65,SE,145,9.0,15.0,63,0.00,,,0.02,weatherlink.com 1.10,2013-03-28 16:56:00,
2013-03-28 17:11:00,38.0,28.0,29.65,SSE,167,6.0,18.0,67,0.00,,,0.02,weatherlink.com 1.10,2013-03-28 17:11:00,
2013-03-28 17:26:00,37.9,27.0,29.65,SE,136,10.0,19.0,66,0.00,,,0.02,weatherlink.com 1.10,2013-03-28 17:26:00,
2013-03-28 17:56:00,38.1,26.0,29.65,SSE,153,8.0,17.0,62,0.00,,,0.02,weatherlink.com 1.10,2013-03-28 17:56:00,
2013-03-28 18:26:00,37.8,27.0,29.65,SE,131,7.0,14.0,66,0.00,,,0.02,weatherlink.com 1.10,2013-03-28 18:26:00,
2013-03-28 18:41:00,37.7,27.0,29.66,SSE,150,6.0,12.0,65,0.00,,,0.02,weatherlink.com 1.10,2013-03-28 18:41:00,
2013-03-28 18:56:00,37.6,27.0,29.65,SSE,156,5.0,11.0,66,0.00,,,0.02,weatherlink.com 1.10,2013-03-28 18:56:00,
2013-03-28 19:11:00,37.7,27.0,29.65,SSE,148,6.0,10.0,66,0.00,,,0.02,weatherlink.com 1.10,2013-03-28 19:11:00,
2013-03-28 19:26:00,37.7,26.0,29.65,SE,142,6.0,13.0,64,0.00,,,0.02,weatherlink.com 1.10,2013-03-28 19:26:00,
2013-03-28 19:42:00,37.8,27.0,29.65,SE,142,4.0,10.0,65,0.00,,,0.02,weatherlink.com 1.10,2013-03-28 19:42:00,
2013-03-28 19:56:00,37.8,27.0,29.64,SSE,148,6.0,8.0,65,0.00,,,0.02,weatherlink.com 1.10,2013-03-28 19:56:00,
2013-03-28 20:11:00,37.9,27.0,29.64,SSE,148,10.0,11.0,66,0.00,,,0.02,weatherlink.com 1.10,2013-03-28 20:11:00,
2013-03-28 20:26:00,38.0,27.0,29.63,SE,136,6.0,12.0,66,0.00,,,0.02,weatherlink.com 1.10,2013-03-28 20:26:00,
2013-03-28 20:42:00,37.9,28.0,29.62,South,174,6.0,13.0,67,0.00,,,0.02,weatherlink.com 1.10,2013-03-28 20:42:00,
2013-03-28 20:57:00,37.9,26.0,29.63,SSE,156,18.0,20.0,63,0.00,,,0.02,weatherlink.com 1.10,2013-03-28 20:57:00,
2013-03-28 21:12:00,37.7,26.0,29.63,SSE,150,7.0,20.0,62,0.00,,,0.02,weatherlink.com 1.10,2013-03-28 21:12:00,
2013-03-28 21:27:00,37.4,26.0,29.63,SSE,166,10.0,17.0,63,0.00,,,0.02,weatherlink.com 1.10,2013-03-28 21:27:00,
2013-03-28 21:42:00,37.3,26.0,29.63,SE,136,9.0,17.0,63,0.00,,,0.02,weatherlink.com 1.10,2013-03-28 21:42:00,
2013-03-28 21:57:00,37.3,25.0,29.63,SE,135,12.0,23.0,62,0.00,,,0.02,weatherlink.com 1.10,2013-03-28 21:57:00,
2013-03-28 22:12:00,37.1,25.0,29.63,SSE,159,9.0,19.0,63,0.00,,,0.02,weatherlink.com 1.10,2013-03-28 22:12:00,
2013-03-28 22:27:00,37.0,26.0,29.63,SSE,150,11.0,17.0,64,0.00,,,0.02,weatherlink.com 1.10,2013-03-28 22:27:00,
2013-03-28 22:43:00,36.9,26.0,29.62,SSE,156,14.0,18.0,64,0.00,,,0.02,weatherlink.com 1.10,2013-03-28 22:43:00,
2013-03-28 22:57:00,36.7,25.0,29.63,SSE,160,12.0,17.0,64,0.00,,,0.02,weatherlink.com 1.10,2013-03-28 22:57:00,
2013-03-28 23:12:00,36.6,26.0,29.62,SSE,150,11.0,23.0,65,0.00,,,0.02,weatherlink.com 1.10,2013-03-28 23:12:00,
2013-03-28 23:27:00,36.6,26.0,29.62,SSE,153,13.0,22.0,65,0.00,,,0.02,weatherlink.com 1.10,2013-03-28 23:27:00,
2013-03-28 23:42:00,36.4,26.0,29.62,South,177,8.0,19.0,65,0.00,,,0.02,weatherlink.com 1.10,2013-03-28 23:42:00,
2013-03-28 23:57:00,36.2,25.0,29.61,SSE,150,13.0,17.0,63,0.00,,,0.02,weatherlink.com 1.10,2013-03-28 23:57:00,